Terminal Aerodrome Forecast
Issued by NWS

Home | Current Version | Previous Version | Text Only | Print | Product List | Glossary On
Versions: 1 2 3 4 5 6 7 8 9 10 11 12
000
FTUS45 KFGZ 010500 RRA
TAFPGA
TAF
KPGA 010541Z 0106/0206 VRB05KT P6SM FEW060 BKN250
     FM011800 20015G24KT P6SM SCT060 BKN250
     FM020100 21010KT P6SM SCT040 BKN050 PROB30 0201/0206 -SHRA
      BKN040=

USA.gov is the U.S. government's official web portal to all federal, state and local government web resources and services.